Time;durP1;ratioP1;P1;durP2;ratioP2;P2;SDS_P1;SDS_P2;PMS_P1;PMS_P2;Temp;Humidity;BMP_temperature;BMP_pressure;BME280_temperature;BME280_humidity;BME280_pressure;Samples;Min_cycle;Max_cycle;Signal;HPM_P1;HPM_P2
2023/09/19 00:00:20;;;;;;;0.00;0.00;;;;;;;15.94;100.00;100571.13;5097885;28;20420;-43
2023/09/19 00:02:59;;;;;;;0.00;0.00;;;;;;;15.95;100.00;100581.75;5089995;28;20266;-43
2023/09/19 00:05:27;;;;;;;0.00;0.00;;;;;;;15.92;100.00;100582.22;5107261;28;20394;-43
2023/09/19 00:07:58;;;;;;;0.00;0.00;;;;;;;15.91;100.00;100577.84;5111537;28;20343;-44
2023/09/19 00:10:30;;;;;;;0.00;0.00;;;;;;;15.91;100.00;100587.88;5112254;28;20437;-41
2023/09/19 00:12:58;;;;;;;0.00;0.00;;;;;;;15.86;100.00;100593.13;5115186;28;20049;-43
2023/09/19 00:15:24;;;;;;;0.00;0.00;;;;;;;15.85;100.00;100599.59;5114678;28;20100;-44
2023/09/19 00:17:52;;;;;;;0.00;0.00;;;;;;;15.83;100.00;100593.59;5097549;28;20075;-41
2023/09/19 00:20:17;;;;;;;;;;;;;;;15.83;100.00;100586.28;5093915;28;20021;-42
2023/09/19 00:22:43;;;;;;;0.00;0.00;;;;;;;15.80;100.00;100595.69;5093996;28;20353;-43
2023/09/19 00:25:09;;;;;;;0.00;0.00;;;;;;;15.83;100.00;100591.69;5093440;28;20024;-44
2023/09/19 00:27:35;;;;;;;0.00;0.00;;;;;;;15.82;100.00;100592.75;5097160;28;20028;-42
2023/09/19 00:30:01;;;;;;;0.00;0.00;;;;;;;15.79;100.00;100599.44;5092977;28;20107;-45
2023/09/19 00:32:32;;;;;;;0.00;0.00;;;;;;;15.84;100.00;100590.63;5104729;28;20110;-44
2023/09/19 00:34:57;;;;;;;0.00;0.00;;;;;;;15.88;100.00;100597.28;5111414;28;20088;-42
2023/09/19 00:37:23;;;;;;;0.00;0.00;;;;;;;15.93;100.00;100600.16;5094945;28;20430;-43
2023/09/19 00:39:48;;;;;;;0.00;0.00;;;;;;;15.94;100.00;100601.00;5092858;28;20394;-41
2023/09/19 00:42:20;;;;;;;0.00;0.00;;;;;;;15.96;100.00;100602.44;5092800;28;20042;-41
2023/09/19 00:44:46;;;;;;;0.00;0.00;;;;;;;15.96;100.00;100610.56;5093168;28;20031;-46
2023/09/19 00:47:16;;;;;;;0.00;0.00;;;;;;;15.97;100.00;100612.22;5096073;28;20543;-42
2023/09/19 00:49:42;;;;;;;0.00;0.00;;;;;;;15.96;100.00;100621.44;5095154;28;20056;-42
2023/09/19 00:52:09;;;;;;;0.00;0.00;;;;;;;15.91;100.00;100610.41;5096792;28;20056;-53
2023/09/19 00:54:35;;;;;;;;;;;;;;;15.88;100.00;100608.16;5098548;28;20028;-41
2023/09/19 00:57:01;;;;;;;0.00;0.00;;;;;;;15.84;100.00;100616.94;5109241;28;20380;-42
2023/09/19 00:59:27;;;;;;;0.00;0.00;;;;;;;15.79;100.00;100610.28;5092429;28;20044;-42
2023/09/19 01:01:54;;;;;;;0.00;0.00;;;;;;;15.78;100.00;100613.25;5092420;28;20559;-41
2023/09/19 01:04:20;;;;;;;0.00;0.00;;;;;;;15.75;100.00;100613.69;5090752;28;20028;-43
2023/09/19 01:06:45;;;;;;;0.00;0.00;;;;;;;15.72;100.00;100616.84;5092487;28;21203;-42
2023/09/19 01:09:11;;;;;;;0.00;0.00;;;;;;;15.74;100.00;100614.72;5107990;28;20028;-43
2023/09/19 01:11:43;;;;;;;0.00;0.00;;;;;;;15.76;100.00;100615.34;5110246;28;20046;-42
2023/09/19 01:14:24;;;;;;;0.00;0.00;;;;;;;15.71;100.00;100626.84;5092943;28;20028;-46
2023/09/19 01:17:04;;;;;;;0.00;0.00;;;;;;;15.73;100.00;100613.91;5091097;28;20122;-45
2023/09/19 01:19:41;;;;;;;0.00;0.00;;;;;;;15.73;100.00;100610.38;5107813;28;20031;-43
2023/09/19 01:22:12;;;;;;;0.00;0.00;;;;;;;15.74;100.00;100618.25;5092675;28;20032;-42
2023/09/19 01:24:49;;;;;;;0.00;0.00;;;;;;;15.73;100.00;100619.31;5092101;28;20488;-43
2023/09/19 01:27:33;;;;;;;0.00;0.00;;;;;;;15.72;100.00;100619.56;5092194;28;20019;-43
2023/09/19 01:30:10;;;;;;;0.00;0.00;;;;;;;15.68;100.00;100626.44;5091100;28;20520;-43
2023/09/19 01:32:37;;;;;;;0.00;0.00;;;;;;;15.71;100.00;100620.59;5096469;28;20027;-44
2023/09/19 01:35:06;;;;;;;0.00;0.00;;;;;;;15.69;100.00;100620.84;5093908;28;20398;-44
2023/09/19 01:37:31;;;;;;;0.00;0.00;;;;;;;15.70;100.00;100622.50;5092124;28;20043;-44
2023/09/19 01:40:15;;;;;;;0.00;0.00;;;;;;;15.65;100.00;100619.56;5091864;28;20474;-43
2023/09/19 01:42:57;;;;;;;0.00;0.00;;;;;;;15.67;100.00;100620.19;5092068;28;20165;-44
2023/09/19 01:45:27;;;;;;;0.00;0.00;;;;;;;15.65;100.00;100629.59;5107566;28;20039;-43
2023/09/19 01:47:56;;;;;;;0.00;0.00;;;;;;;15.59;100.00;100626.72;5111551;28;20074;-43
2023/09/19 01:50:32;;;;;;;0.00;0.00;;;;;;;15.55;100.00;100636.34;5103345;28;20046;-44
2023/09/19 01:53:04;;;;;;;0.00;0.00;;;;;;;15.52;100.00;100631.34;5089951;28;20038;-42
2023/09/19 01:55:30;;;;;;;0.00;0.00;;;;;;;15.49;100.00;100631.78;5090435;28;20024;-41
2023/09/19 01:58:07;;;;;;;0.00;0.00;;;;;;;15.46;100.00;100626.81;5090670;28;20028;-42
2023/09/19 02:00:35;;;;;;;0.00;0.00;;;;;;;15.44;100.00;100631.63;5090751;28;20090;-42
2023/09/19 02:03:00;;;;;;;0.00;0.00;;;;;;;15.41;100.00;100625.81;5090865;28;20036;-41
2023/09/19 02:05:27;;;;;;;0.00;0.00;;;;;;;15.37;100.00;100628.94;5090398;28;20535;-42
2023/09/19 02:07:53;;;;;;;0.00;0.00;;;;;;;15.39;100.00;100623.31;5091769;28;20110;-43
2023/09/19 02:10:19;;;;;;;0.00;0.00;;;;;;;15.36;100.00;100623.75;5091562;28;20486;-43
2023/09/19 02:12:45;;;;;;;0.00;0.00;;;;;;;15.33;100.00;100624.19;5106140;28;20150;-42
2023/09/19 02:15:10;;;;;;;0.00;0.00;;;;;;;15.30;100.00;100632.78;5094072;28;20035;-43
2023/09/19 02:17:36;;;;;;;0.00;0.00;;;;;;;15.30;100.00;100639.03;5091216;28;20486;-42
2023/09/19 02:20:02;;;;;;;0.00;0.00;;;;;;;15.29;100.00;100642.75;5097229;28;20035;-41
2023/09/19 02:22:27;;;;;;;0.00;0.00;;;;;;;15.23;100.00;100640.09;5104114;28;20023;-43
2023/09/19 02:24:53;;;;;;;0.00;0.00;;;;;;;15.23;100.00;100642.81;5099231;28;20119;-44
2023/09/19 02:27:19;;;;;;;0.00;0.00;;;;;;;15.28;100.00;100648.41;5091098;28;20471;-43
2023/09/19 02:29:44;;;;;;;0.00;0.00;;;;;;;15.31;100.00;100639.84;5091108;28;20024;-41
2023/09/19 02:32:10;;;;;;;0.00;0.00;;;;;;;15.40;100.00;100640.41;5092661;28;20588;-44
2023/09/19 02:34:42;;;;;;;0.00;0.00;;;;;;;15.44;100.00;100642.47;5109089;28;20032;-42
2023/09/19 02:37:08;;;;;;;0.00;0.00;;;;;;;15.48;100.00;100635.56;5110580;28;20027;-42
2023/09/19 02:39:34;;;;;;;0.00;0.00;;;;;;;15.53;100.00;100643.88;5092875;28;20093;-42
2023/09/19 02:41:59;;;;;;;0.00;0.00;;;;;;;15.57;100.00;100642.38;5090287;28;20470;-42
2023/09/19 02:44:25;;;;;;;0.00;0.00;;;;;;;15.62;100.00;100635.47;5090899;28;20020;-42
2023/09/19 02:46:51;;;;;;;0.00;0.00;;;;;;;15.66;100.00;100634.78;5091124;28;20385;-44
2023/09/19 02:49:17;;;;;;;0.00;0.00;;;;;;;15.68;100.00;100643.53;5093439;28;20032;-43
2023/09/19 02:51:43;;;;;;;0.00;0.00;;;;;;;15.68;100.00;100640.00;5097229;28;20070;-44
2023/09/19 02:54:09;;;;;;;0.00;0.00;;;;;;;15.67;100.00;100632.94;5090977;28;20044;-41
2023/09/19 02:56:35;;;;;;;0.00;0.00;;;;;;;15.69;100.00;100636.25;5098243;28;20032;-41
2023/09/19 02:59:01;;;;;;;0.00;0.00;;;;;;;15.73;100.00;100642.91;5094329;28;20504;-43
2023/09/19 03:01:28;;;;;;;0.00;0.00;;;;;;;15.71;100.00;100648.56;5110571;28;20055;-44
2023/09/19 03:03:53;;;;;;;0.00;0.00;;;;;;;15.75;100.00;100640.81;5104213;28;20031;-43
2023/09/19 03:06:19;;;;;;;0.00;0.00;;;;;;;15.78;100.00;100646.63;5092401;28;20452;-44
2023/09/19 03:08:48;;;;;;;0.00;0.00;;;;;;;15.77;100.00;100641.41;5090276;28;20390;-43
2023/09/19 03:11:15;;;;;;;0.00;0.00;;;;;;;15.79;100.00;100647.47;5091376;28;20375;-43
2023/09/19 03:13:42;;;;;;;0.00;0.00;;;;;;;15.80;100.00;100644.53;5090134;28;20028;-46
2023/09/19 03:16:08;;;;;;;0.00;0.00;;;;;;;15.82;100.00;100644.28;5090745;28;20051;-44
2023/09/19 03:18:36;;;;;;;0.00;0.00;;;;;;;15.79;100.00;100631.19;5091066;28;20418;-43
2023/09/19 03:21:01;;;;;;;0.00;0.00;;;;;;;15.75;100.00;100632.69;5099085;28;20538;-41
2023/09/19 03:23:28;;;;;;;0.00;0.00;;;;;;;15.78;100.00;100632.25;5094314;28;20111;-45
2023/09/19 03:25:54;;;;;;;0.00;0.00;;;;;;;15.82;100.00;100628.00;5108780;28;20031;-44
2023/09/19 03:28:22;;;;;;;0.00;0.00;;;;;;;15.83;100.00;100626.16;5095830;28;20019;-43
2023/09/19 03:31:17;;;;;;;0.00;0.00;;;;;;;15.82;100.00;100625.31;5109878;28;20020;-43
2023/09/19 03:33:42;;;;;;;0.00;0.00;;;;;;;15.83;100.00;100632.41;5101313;28;20035;-44
2023/09/19 03:36:08;;;;;;;0.00;0.00;;;;;;;15.88;100.00;100640.72;5109841;28;20466;-42
2023/09/19 03:38:36;;;;;;;0.00;0.00;;;;;;;15.82;100.00;100646.19;5117156;28;20106;-43
2023/09/19 03:41:02;;;;;;;0.00;0.00;;;;;;;15.79;100.00;100659.13;5112849;27;20028;-43
2023/09/19 03:43:28;;;;;;;0.00;0.00;;;;;;;15.77;100.00;100657.69;5090515;28;20031;-43
2023/09/19 03:45:56;;;;;;;0.00;0.00;;;;;;;15.74;100.00;100661.69;5092267;28;20020;-43
2023/09/19 03:48:22;;;;;;;0.00;0.00;;;;;;;15.75;100.00;100660.66;5106460;28;20082;-44
2023/09/19 03:50:48;;;;;;;0.00;0.00;;;;;;;15.76;100.00;100658.75;5095218;28;20143;-42
2023/09/19 03:53:13;;;;;;;0.00;0.00;;;;;;;15.75;100.00;100657.09;5098899;28;20032;-41
2023/09/19 03:55:39;;;;;;;0.00;0.00;;;;;;;15.73;100.00;100670.06;5092556;28;20040;-42
2023/09/19 03:58:05;;;;;;;0.00;0.00;;;;;;;15.68;100.00;100651.69;5090074;28;20028;-42
2023/09/19 04:00:30;;;;;;;0.00;0.00;;;;;;;15.63;100.00;100658.81;5091553;28;20048;-41
2023/09/19 04:02:56;;;;;;;0.00;0.00;;;;;;;15.63;100.00;100669.69;5091832;28;20105;-43
2023/09/19 04:05:22;;;;;;;0.00;0.00;;;;;;;15.59;100.00;100674.72;5092242;28;20097;-43
2023/09/19 04:07:47;;;;;;;0.00;0.00;;;;;;;15.54;100.00;100674.53;5102557;28;20485;-42
2023/09/19 04:10:14;;;;;;;0.00;0.00;;;;;;;15.52;100.00;100674.75;5090978;28;20027;-44
2023/09/19 04:12:40;;;;;;;0.00;0.00;;;;;;;15.51;100.00;100681.25;5092168;28;20060;-43
2023/09/19 04:15:06;;;;;;;0.00;0.00;;;;;;;15.50;100.00;100676.84;5091325;28;20051;-43
2023/09/19 04:17:33;;;;;;;0.00;0.00;;;;;;;15.48;100.00;100676.25;5097527;28;20561;-42
2023/09/19 04:19:58;;;;;;;0.00;0.00;;;;;;;15.55;100.00;100678.91;5099501;28;20028;-44
2023/09/19 04:22:24;;;;;;;0.00;0.00;;;;;;;15.55;100.00;100690.59;5092043;28;20043;-43
2023/09/19 04:24:49;;;;;;;0.00;0.00;;;;;;;15.56;100.00;100673.28;5103173;28;20487;-45
2023/09/19 04:27:15;;;;;;;0.00;0.00;;;;;;;15.52;100.00;100674.75;5092130;28;20059;-43
2023/09/19 04:29:41;;;;;;;0.00;0.00;;;;;;;15.52;100.00;100672.03;5091847;28;20442;-44
2023/09/19 04:32:07;;;;;;;0.00;0.00;;;;;;;15.50;100.00;100671.41;5092542;28;20039;-44
2023/09/19 04:34:34;;;;;;;0.00;0.00;;;;;;;15.48;100.00;100668.13;5095002;28;20019;-43
2023/09/19 04:37:00;;;;;;;0.00;0.00;;;;;;;15.46;100.00;100683.78;5091192;28;20858;-44
2023/09/19 04:39:26;;;;;;;0.00;0.00;;;;;;;15.46;100.00;100682.94;5090801;28;20032;-42
2023/09/19 04:41:52;;;;;;;0.00;0.00;;;;;;;15.45;100.00;100678.56;5091178;28;20024;-41
2023/09/19 04:44:18;;;;;;;0.00;0.00;;;;;;;15.43;100.00;100686.06;5093883;28;20046;-41
2023/09/19 04:46:43;;;;;;;0.00;0.00;;;;;;;15.39;100.00;100685.69;5093830;28;20168;-42
2023/09/19 04:49:09;;;;;;;0.00;0.00;;;;;;;15.38;100.00;100678.59;5091016;28;20039;-42
2023/09/19 04:51:36;;;;;;;0.00;0.00;;;;;;;15.34;100.00;100677.38;5098235;28;20066;-43
2023/09/19 04:54:02;;;;;;;0.00;0.00;;;;;;;15.35;100.00;100679.03;5099437;28;20028;-44
2023/09/19 04:56:28;;;;;;;0.00;0.00;;;;;;;15.31;100.00;100685.94;5106263;28;20088;-43
2023/09/19 04:58:53;;;;;;;0.00;0.00;;;;;;;15.28;100.00;100691.81;5092084;28;20024;-42
2023/09/19 05:01:19;;;;;;;0.00;0.00;;;;;;;15.27;100.00;100695.53;5098365;28;20062;-44
2023/09/19 05:03:45;;;;;;;0.00;0.00;;;;;;;15.29;100.00;100704.28;5099698;28;20020;-44
2023/09/19 05:06:10;;;;;;;0.00;0.00;;;;;;;15.31;100.00;100696.78;5096851;28;20107;-45
2023/09/19 05:08:35;;;;;;;0.00;0.00;;;;;;;15.34;100.00;100699.06;5093136;28;20093;-43
2023/09/19 05:11:04;;;;;;;0.00;0.00;;;;;;;15.35;100.00;100700.75;5092652;28;20035;-44
2023/09/19 05:13:31;;;;;;;0.00;0.00;;;;;;;15.33;100.00;100691.97;5094159;28;20129;-43
2023/09/19 05:16:01;;;;;;;0.00;0.00;;;;;;;15.32;100.00;100685.75;5094841;28;20059;-42
2023/09/19 05:18:27;;;;;;;0.00;0.00;;;;;;;15.34;100.00;100689.03;5098659;28;20550;-43
2023/09/19 05:20:53;;;;;;;0.00;0.00;;;;;;;15.38;100.00;100678.59;5107947;28;20063;-42
2023/09/19 05:23:20;;;;;;;0.00;0.00;;;;;;;15.41;100.00;100682.75;5105090;28;20047;-42
2023/09/19 05:25:46;;;;;;;0.00;0.00;;;;;;;15.43;100.00;100680.66;5113628;28;20030;-43
2023/09/19 05:28:14;;;;;;;0.00;0.00;;;;;;;15.48;100.00;100676.25;5092828;28;20378;-41
2023/09/19 05:30:40;;;;;;;0.00;0.00;;;;;;;15.48;100.00;100672.69;5092449;28;20039;-45
2023/09/19 05:33:07;;;;;;;0.00;0.00;;;;;;;15.46;100.00;100675.63;5095700;28;20055;-44
2023/09/19 05:35:32;;;;;;;0.00;0.00;;;;;;;15.46;100.00;100675.63;5100556;28;20032;-41
2023/09/19 05:37:58;;;;;;;0.00;0.00;;;;;;;15.50;100.00;100682.28;5112055;28;20077;-42
2023/09/19 05:40:24;;;;;;;0.00;0.00;;;;;;;15.48;100.00;100687.09;5104564;28;20061;-43
2023/09/19 05:42:50;;;;;;;0.00;0.00;;;;;;;15.48;100.00;100702.53;5110981;28;20027;-43
2023/09/19 05:45:22;;;;;;;0.00;0.00;;;;;;;15.48;100.00;100689.81;5091808;28;20028;-42
2023/09/19 05:47:50;;;;;;;0.00;0.00;;;;;;;15.51;100.00;100707.53;5099621;28;20028;-44
2023/09/19 05:50:16;;;;;;;0.00;0.00;;;;;;;15.53;100.00;100698.13;5091637;28;20028;-42
2023/09/19 05:52:42;;;;;;;0.00;0.00;;;;;;;15.56;100.00;100705.81;5100328;28;20053;-42
2023/09/19 05:55:08;;;;;;;0.00;0.00;;;;;;;15.62;100.00;100703.28;5108460;28;20024;-42
2023/09/19 05:57:34;;;;;;;0.00;0.00;;;;;;;15.63;100.00;100703.06;5095672;28;20039;-41
2023/09/19 06:00:00;;;;;;;0.05;0.00;;;;;;;15.63;100.00;100702.22;5092614;28;20044;-44
2023/09/19 06:02:28;;;;;;;0.00;0.00;;;;;;;15.64;100.00;100695.75;5091536;28;20039;-41
2023/09/19 06:04:55;;;;;;;0.00;0.00;;;;;;;15.68;100.00;100707.84;5090702;28;20043;-42
2023/09/19 06:07:26;;;;;;;0.00;0.00;;;;;;;15.70;100.00;100713.91;5097852;28;20490;-43
2023/09/19 06:09:51;;;;;;;0.00;0.00;;;;;;;15.70;100.00;100720.16;5112195;28;20028;-45
2023/09/19 06:12:17;;;;;;;0.00;0.00;;;;;;;15.71;100.00;100716.38;5107147;28;20454;-44
2023/09/19 06:14:43;;;;;;;0.00;0.00;;;;;;;15.76;100.00;100710.31;5105198;28;20031;-46
2023/09/19 06:17:09;;;;;;;0.00;0.00;;;;;;;15.79;100.00;100709.88;5109819;28;20098;-41
2023/09/19 06:19:34;;;;;;;0.00;0.00;;;;;;;15.80;100.00;100714.25;5105238;28;20447;-43
2023/09/19 06:21:59;;;;;;;0.00;0.00;;;;;;;15.84;100.00;100717.34;5095313;28;20051;-43
2023/09/19 06:24:25;;;;;;;0.00;0.00;;;;;;;15.85;100.00;100711.72;5109567;28;20103;-44
2023/09/19 06:26:52;;;;;;;0.00;0.00;;;;;;;15.87;100.00;100719.63;5110778;28;20027;-43
2023/09/19 06:29:18;;;;;;;0.00;0.00;;;;;;;15.90;100.00;100717.28;5089264;28;20496;-44
2023/09/19 06:31:44;;;;;;;0.00;0.00;;;;;;;15.93;100.00;100708.75;5093397;28;20028;-43
2023/09/19 06:34:10;;;;;;;0.00;0.00;;;;;;;15.94;100.00;100715.00;5091303;28;20024;-43
2023/09/19 06:36:35;;;;;;;0.00;0.00;;;;;;;15.95;100.00;100716.63;5105208;28;20052;-42
2023/09/19 06:39:01;;;;;;;0.00;0.00;;;;;;;15.96;100.00;100719.16;5099062;28;20474;-45
2023/09/19 06:41:26;;;;;;;0.00;0.00;;;;;;;16.01;100.00;100719.31;5090631;28;20339;-42
2023/09/19 06:43:53;;;;;;;0.00;0.00;;;;;;;16.07;100.00;100722.19;5096054;28;20054;-45
2023/09/19 06:46:18;;;;;;;0.00;0.00;;;;;;;16.12;100.00;100712.34;5099053;28;20028;-43
2023/09/19 06:48:44;;;;;;;0.00;0.00;;;;;;;16.17;100.00;100725.25;5100910;28;20028;-41
2023/09/19 06:51:10;;;;;;;0.00;0.00;;;;;;;16.27;100.00;100733.69;5096464;28;20032;-45
2023/09/19 06:53:35;;;;;;;0.00;0.00;;;;;;;16.34;100.00;100731.78;5097424;27;20466;-43
2023/09/19 06:56:02;;;;;;;0.00;0.00;;;;;;;16.31;100.00;100724.06;5092142;28;20056;-42
2023/09/19 06:58:27;;;;;;;0.00;0.00;;;;;;;16.35;100.00;100728.03;5105411;27;20043;-41
2023/09/19 07:00:53;;;;;;;0.00;0.00;;;;;;;16.39;100.00;100734.66;5092505;28;20039;-44
2023/09/19 07:03:21;;;;;;;0.00;0.00;;;;;;;16.39;100.00;100731.94;5109233;28;20024;-42
2023/09/19 07:05:47;;;;;;;0.00;0.00;;;;;;;16.15;100.00;100733.59;5101074;28;20462;-42
2023/09/19 07:08:13;;;;;;;0.00;0.00;;;;;;;15.96;100.00;100746.28;5103684;28;20063;-42
2023/09/19 07:10:48;;;;;;;0.00;0.00;;;;;;;15.95;100.00;100743.78;5107497;28;20093;-41
2023/09/19 07:13:16;;;;;;;0.00;0.00;;;;;;;15.87;100.00;100747.59;5102722;28;20036;-40
2023/09/19 07:15:46;;;;;;;0.00;0.00;;;;;;;15.80;100.00;100741.41;5109725;28;20028;-41
2023/09/19 07:18:16;;;;;;;0.00;0.00;;;;;;;15.92;100.00;100738.81;5103440;28;20047;-43
2023/09/19 07:20:48;;;;;;;0.00;0.00;;;;;;;16.21;100.00;100742.75;5102200;28;20448;-45
2023/09/19 07:23:23;;;;;;;0.00;0.00;;;;;;;16.34;100.00;100744.53;5105853;27;20039;-44
2023/09/19 07:25:49;;;;;;;0.00;0.00;;;;;;;16.11;100.00;100747.84;5115008;28;20500;-42
2023/09/19 07:28:15;;;;;;;0.00;0.00;;;;;;;15.85;100.00;100768.72;5115290;28;20036;-42
2023/09/19 07:30:41;;;;;;;0.00;0.00;;;;;;;15.80;100.00;100763.94;5107474;28;20055;-43
2023/09/19 07:33:07;;;;;;;0.00;0.00;;;;;;;15.83;100.00;100778.94;5104695;28;20055;-40
2023/09/19 07:35:33;;;;;;;0.00;0.00;;;;;;;15.87;100.00;100771.19;5112954;28;20035;-43
2023/09/19 07:38:01;;;;;;;0.00;0.00;;;;;;;15.91;100.00;100765.13;5104396;28;20027;-45
2023/09/19 07:40:26;;;;;;;;;;;;;;;15.89;100.00;100780.78;5094708;28;20106;-43
2023/09/19 07:42:52;;;;;;;0.00;0.00;;;;;;;16.00;100.00;100763.78;5100765;28;19980;-42
2023/09/19 07:45:17;;;;;;;0.00;0.00;;;;;;;16.09;100.00;100763.50;5114967;28;20114;-45
2023/09/19 07:47:50;;;;;;;0.00;0.00;;;;;;;16.47;100.00;100763.41;5114828;27;20106;-41
2023/09/19 07:50:18;;;;;;;0.00;0.00;;;;;;;16.63;100.00;100764.72;5097545;28;20024;-44
2023/09/19 07:52:44;;;;;;;;;;;;;;;16.62;100.00;100758.47;5099324;27;20424;-45
2023/09/19 07:55:11;;;;;;;0.00;0.00;;;;;;;16.63;100.00;100759.31;5114912;28;20006;-43
2023/09/19 07:57:37;;;;;;;0.00;0.00;;;;;;;16.60;100.00;100746.16;5114736;27;20027;-42
2023/09/19 08:00:06;;;;;;;0.00;0.00;;;;;;;16.75;100.00;100749.38;5102415;28;20035;-44
2023/09/19 08:02:39;;;;;;;0.00;0.00;;;;;;;17.01;100.00;100747.41;5112497;27;20031;-43
2023/09/19 08:05:11;;;;;;;0.00;0.00;;;;;;;16.91;100.00;100741.72;5114958;28;20100;-42
2023/09/19 08:07:37;;;;;;;0.00;0.00;;;;;;;16.95;100.00;100737.47;5112305;27;20500;-43
2023/09/19 08:10:04;;;;;;;0.00;0.00;;;;;;;16.81;100.00;100732.19;5108323;28;20130;-42
2023/09/19 08:12:30;;;;;;;0.00;0.00;;;;;;;16.74;100.00;100736.81;5099830;28;20024;-41
2023/09/19 08:14:55;;;;;;;0.00;0.00;;;;;;;16.72;100.00;100741.66;5114469;28;20034;-42
2023/09/19 08:17:22;;;;;;;0.00;0.00;;;;;;;16.67;100.00;100730.63;5101232;28;20020;-42
2023/09/19 08:19:49;;;;;;;0.00;0.00;;;;;;;16.57;100.00;100730.31;5113470;28;20031;-42
2023/09/19 08:22:17;;;;;;;0.00;0.00;;;;;;;16.46;100.00;100742.75;5113893;27;20034;-44
2023/09/19 08:24:42;;;;;;;;;;;;;;;16.34;100.00;100725.50;5108589;28;20024;-43
2023/09/19 08:27:10;;;;;;;0.00;0.00;;;;;;;16.24;100.00;100732.28;5110550;28;19918;-44
2023/09/19 08:29:35;;;;;;;0.00;0.00;;;;;;;16.15;100.00;100740.94;5105382;28;20034;-43
2023/09/19 08:32:00;;;;;;;1.45;0.00;;;;;;;16.11;100.00;100739.69;5109178;27;20039;-43
2023/09/19 08:34:26;;;;;;;0.00;0.00;;;;;;;16.06;100.00;100745.81;5112203;28;20019;-43
2023/09/19 08:36:56;;;;;;;0.00;0.00;;;;;;;15.91;100.00;100751.53;5101602;28;20070;-42
2023/09/19 08:39:22;;;;;;;0.00;0.00;;;;;;;15.80;100.00;100746.81;5092863;28;20473;-42
2023/09/19 08:41:47;;;;;;;0.00;0.00;;;;;;;15.83;100.00;100746.38;5107150;27;20028;-43
2023/09/19 08:44:13;;;;;;;0.00;0.00;;;;;;;15.71;100.00;100753.53;5114331;28;20020;-43
2023/09/19 08:46:41;;;;;;;0.00;0.00;;;;;;;15.58;100.00;100766.09;5113687;27;20107;-44
2023/09/19 08:49:19;;;;;;;0.00;0.00;;;;;;;15.30;100.00;100769.16;5098317;27;20369;-42
2023/09/19 08:51:50;;;;;;;0.00;0.00;;;;;;;15.23;100.00;100762.09;5104929;27;20413;-45
2023/09/19 08:54:29;;;;;;;0.00;0.00;;;;;;;15.21;100.00;100777.75;5114811;28;20474;-43
2023/09/19 08:56:54;;;;;;;0.00;0.00;;;;;;;15.35;100.00;100768.53;5101564;28;20047;-42
2023/09/19 08:59:26;;;;;;;0.00;0.00;;;;;;;15.63;100.00;100751.06;5092217;28;20059;-42
2023/09/19 09:01:53;;;;;;;0.00;0.00;;;;;;;16.37;100.00;100755.75;5094664;27;20501;-43
2023/09/19 09:04:20;;;;;;;0.00;0.00;;;;;;;17.15;100.00;100739.97;5107211;27;20055;-43
2023/09/19 09:06:48;;;;;;;0.00;0.00;;;;;;;17.65;100.00;100718.75;5106021;27;20035;-46
2023/09/19 09:09:14;;;;;;;0.00;0.00;;;;;;;17.67;100.00;100724.81;5097703;28;20528;-43
2023/09/19 09:11:40;;;;;;;0.00;0.00;;;;;;;17.48;100.00;100725.91;5111176;28;20051;-42
2023/09/19 09:14:07;;;;;;;0.00;0.00;;;;;;;17.49;100.00;100722.16;5101830;28;20517;-44
2023/09/19 09:16:32;;;;;;;0.00;0.00;;;;;;;17.47;100.00;100721.53;5103209;28;20473;-42
2023/09/19 09:18:58;;;;;;;0.00;0.00;;;;;;;17.48;100.00;100710.44;5094046;28;20016;-44
2023/09/19 09:21:27;;;;;;;0.00;0.00;;;;;;;17.15;100.00;100738.06;5111254;28;20024;-44
2023/09/19 09:23:53;;;;;;;0.00;0.00;;;;;;;17.07;100.00;100741.09;5093018;28;20035;-42
2023/09/19 09:26:38;;;;;;;0.00;0.00;;;;;;;16.91;100.00;100739.00;5092518;28;20028;-42
2023/09/19 09:29:04;;;;;;;0.00;0.00;;;;;;;16.97;100.00;100730.75;5088089;28;20036;-42
2023/09/19 09:31:29;;;;;;;0.00;0.00;;;;;;;17.12;100.00;100727.66;5092634;28;20028;-43
2023/09/19 09:33:55;;;;;;;0.00;0.00;;;;;;;17.13;100.00;100718.41;5092594;28;20028;-43
2023/09/19 09:36:38;;;;;;;0.00;0.00;;;;;;;16.93;100.00;100732.28;5093234;28;20389;-43
2023/09/19 09:39:15;;;;;;;0.00;0.00;;;;;;;17.00;100.00;100724.03;5092372;28;20024;-42
2023/09/19 09:41:41;;;;;;;0.00;0.00;;;;;;;17.04;100.00;100719.81;5105223;28;20045;-42
2023/09/19 09:44:15;;;;;;;0.00;0.00;;;;;;;17.08;100.00;100721.00;5112523;28;20051;-41
2023/09/19 09:52:07;;;;;;;0.00;0.00;;;;;;;17.05;100.00;100711.41;5114140;28;20039;-43
2023/09/19 09:54:36;;;;;;;0.00;0.00;;;;;;;17.04;100.00;100698.06;5113187;28;20386;-44
2023/09/19 09:57:26;;;;;;;0.00;0.00;;;;;;;17.19;100.00;100706.63;5111668;28;20110;-41
2023/09/19 09:59:53;;;;;;;0.00;0.00;;;;;;;17.11;100.00;100682.47;5111443;28;20052;-42
2023/09/19 10:02:28;;;;;;;0.00;0.00;;;;;;;17.21;100.00;100692.81;5111867;28;20122;-42
2023/09/19 10:07:47;;;;;;;0.00;0.00;;;;;;;17.22;100.00;100695.31;5112320;28;20065;-40
2023/09/19 10:10:16;;;;;;;0.00;0.00;;;;;;;17.20;100.00;100681.09;5111715;28;20412;-42
2023/09/19 10:12:47;;;;;;;0.00;0.00;;;;;;;17.06;100.00;100712.22;5111794;28;20034;-43
2023/09/19 10:15:20;;;;;;;0.00;0.00;;;;;;;17.20;100.00;100680.28;5110526;28;20030;-43
2023/09/19 10:17:45;;;;;;;0.00;0.00;;;;;;;17.41;100.00;100676.22;5112224;28;20305;-40
2023/09/19 10:20:38;;;;;;;0.00;0.00;;;;;;;17.60;100.00;100680.53;5111671;28;20032;-42
2023/09/19 10:23:12;;;;;;;0.00;0.00;;;;;;;17.89;100.00;100662.50;5111491;28;20127;-43
2023/09/19 10:25:41;;;;;;;0.00;0.00;;;;;;;18.01;100.00;100676.16;5111716;28;20100;-41
2023/09/19 10:28:13;;;;;;;0.00;0.00;;;;;;;18.08;100.00;100671.41;5112171;28;20062;-42
2023/09/19 10:30:43;;;;;;;0.00;0.00;;;;;;;17.98;100.00;100691.06;5111394;28;20024;-42
2023/09/19 10:33:09;;;;;;;0.00;0.00;;;;;;;18.16;100.00;100665.59;5109967;28;20474;-39
2023/09/19 10:35:40;;;;;;;0.00;0.00;;;;;;;18.13;100.00;100659.81;5111402;28;20031;-45
2023/09/19 10:38:06;;;;;;;0.00;0.00;;;;;;;17.85;100.00;100676.81;5110789;28;20381;-41
2023/09/19 10:40:33;;;;;;;0.00;0.00;;;;;;;17.74;100.00;100652.03;5111176;28;20024;-43
2023/09/19 10:43:06;;;;;;;0.00;0.00;;;;;;;17.87;100.00;100664.63;5109854;28;20031;-44
2023/09/19 10:45:33;;;;;;;0.00;0.00;;;;;;;18.01;100.00;100673.44;5111747;28;20034;-42
2023/09/19 10:48:00;;;;;;;0.00;0.00;;;;;;;18.11;100.00;100676.38;5111810;28;20469;-41
2023/09/19 10:50:27;;;;;;;0.00;0.00;;;;;;;18.50;100.00;100662.28;5098672;28;20497;-46
2023/09/19 10:53:04;;;;;;;0.00;0.00;;;;;;;18.46;100.00;100642.00;5091130;28;20035;-42
2023/09/19 10:55:30;;;;;;;0.00;0.00;;;;;;;18.32;100.00;100657.78;5088969;28;20281;-42
2023/09/19 10:58:09;;;;;;;0.00;0.00;;;;;;;18.17;100.00;100667.28;5090011;28;20024;-43
2023/09/19 11:00:51;;;;;;;0.00;0.00;;;;;;;18.06;100.00;100650.91;5095504;28;20031;-43
2023/09/19 11:03:23;;;;;;;0.00;0.00;;;;;;;18.03;100.00;100656.84;5107859;28;20055;-43
2023/09/19 11:06:06;;;;;;;0.30;0.00;;;;;;;17.91;100.00;100659.56;5090881;28;20036;-44
2023/09/19 11:08:57;;;;;;;0.00;0.00;;;;;;;17.96;100.00;100651.53;5094234;28;20032;-44
2023/09/19 11:11:38;;;;;;;0.00;0.00;;;;;;;18.17;100.00;100653.66;5090296;28;20020;-43
2023/09/19 11:14:25;;;;;;;0.00;0.00;;;;;;;18.01;100.00;100653.53;5094479;28;20039;-41
2023/09/19 11:17:13;;;;;;;0.00;0.00;;;;;;;17.86;100.00;100649.38;5090632;28;20028;-41
2023/09/19 11:22:51;;;;;;;0.00;0.00;;;;;;;17.72;100.00;100667.78;5097007;28;20139;-43
2023/09/19 11:25:43;;;;;;;0.00;0.00;;;;;;;17.72;100.00;100661.50;5095983;28;20439;-42
2023/09/19 11:28:18;;;;;;;0.00;0.00;;;;;;;17.84;100.00;100664.28;5096003;28;20044;-44
2023/09/19 11:30:43;;;;;;;0.00;0.00;;;;;;;17.81;100.00;100648.44;5107701;28;20063;-41
2023/09/19 11:36:02;;;;;;;0.00;0.00;;;;;;;17.81;100.00;100637.53;5103008;28;20101;-43
2023/09/19 11:38:47;;;;;;;0.00;0.00;;;;;;;17.80;100.00;100655.78;5103278;28;20044;-44